Time;durP1;ratioP1;P1;durP2;ratioP2;P2;SDS_P1;SDS_P2;PMS_P1;PMS_P2;Temp;Humidity;BMP_temperature;BMP_pressure;BME280_temperature;BME280_humidity;BME280_pressure;Samples;Min_cycle;Max_cycle;Signal;HPM_P1;HPM_P2
2022/10/10 00:00:45;;;;;;;1.83;1.20;;;8.70;99.90;;;;;;5026295;28;20029;-63
2022/10/10 00:03:12;;;;;;;2.13;1.05;;;8.70;99.90;;;;;;5023343;28;20104;-63
2022/10/10 00:05:39;;;;;;;5.05;2.17;;;8.70;99.90;;;;;;5003198;28;20038;-63
2022/10/10 00:08:05;;;;;;;5.88;1.45;;;8.70;99.90;;;;;;5027629;28;20107;-64
2022/10/10 00:10:31;;;;;;;3.78;1.52;;;8.70;99.90;;;;;;5019960;28;20087;-63
2022/10/10 00:12:57;;;;;;;2.08;1.30;;;8.70;99.90;;;;;;5022383;28;20547;-63
2022/10/10 00:15:22;;;;;;;1.83;1.30;;;8.70;99.90;;;;;;5025912;28;20480;-63
2022/10/10 00:17:48;;;;;;;2.92;1.50;;;8.80;99.90;;;;;;5021657;28;20116;-63
2022/10/10 00:20:16;;;;;;;2.65;1.58;;;8.80;99.90;;;;;;5022577;28;20060;-63
2022/10/10 00:22:42;;;;;;;2.22;1.40;;;8.80;99.90;;;;;;5029911;28;20510;-63
2022/10/10 00:25:09;;;;;;;3.53;1.73;;;8.80;99.90;;;;;;5026054;28;20033;-64
2022/10/10 00:27:35;;;;;;;2.55;1.38;;;8.80;99.90;;;;;;5029557;28;20052;-63
2022/10/10 00:30:02;;;;;;;1.77;1.25;;;8.70;99.90;;;;;;5030374;28;20040;-63
2022/10/10 00:32:27;;;;;;;7.05;1.60;;;8.70;99.90;;;;;;5028472;28;20017;-62
2022/10/10 00:34:53;;;;;;;2.00;1.13;;;8.60;99.90;;;;;;5024167;28;20025;-63
2022/10/10 00:37:18;;;;;;;3.85;1.27;;;8.60;99.90;;;;;;5028904;28;20025;-63
2022/10/10 00:39:44;;;;;;;5.18;1.60;;;8.50;99.90;;;;;;5019378;28;20025;-63
2022/10/10 00:42:15;;;;;;;5.00;1.17;;;8.50;99.90;;;;;;5018152;28;20050;-63
2022/10/10 00:44:42;;;;;;;1.27;1.08;;;8.50;99.90;;;;;;5028199;28;20065;-63
2022/10/10 00:47:08;;;;;;;3.47;1.38;;;8.50;99.90;;;;;;5030524;28;20028;-63
2022/10/10 00:49:38;;;;;;;2.63;1.30;;;8.60;99.90;;;;;;5015827;28;20030;-63
2022/10/10 00:52:04;;;;;;;3.95;1.58;;;8.60;99.90;;;;;;5021306;28;20113;-63
2022/10/10 00:54:32;;;;;;;2.67;1.52;;;8.60;99.90;;;;;;5027283;28;20027;-63
2022/10/10 00:57:09;;;;;;;1.25;1.08;;;8.50;99.90;;;;;;5020424;28;20105;-63
2022/10/10 00:59:39;;;;;;;4.50;1.50;;;8.50;99.90;;;;;;5024967;28;20033;-61
2022/10/10 01:02:05;;;;;;;2.95;1.40;;;8.40;99.90;;;;;;5027437;28;20049;-63
2022/10/10 01:04:38;;;;;;;1.98;1.08;;;8.40;99.90;;;;;;5023117;28;20064;-63
2022/10/10 01:07:07;;;;;;;3.05;1.98;;;8.40;99.90;;;;;;5011684;28;20073;-63
2022/10/10 01:09:36;;;;;;;3.30;1.38;;;8.30;99.90;;;;;;5022203;28;20508;-63
2022/10/10 01:12:39;;;;;;;4.03;1.67;;;8.30;99.90;;;;;;5027606;28;20025;-63
2022/10/10 01:15:29;;;;;;;1.88;1.27;;;8.30;99.90;;;;;;5025463;28;20033;-63
2022/10/10 01:18:26;;;;;;;6.43;1.75;;;8.20;99.90;;;;;;5042810;28;20037;-63
2022/10/10 01:20:57;;;;;;;2.92;1.50;;;8.10;99.90;;;;;;5016951;28;20993;-63
2022/10/10 01:24:14;;;;;;;3.72;1.05;;;8.10;99.90;;;;;;5025075;28;20088;-62
2022/10/10 01:27:15;;;;;;;4.55;1.60;;;8.10;99.90;;;;;;4988071;28;20038;-62
2022/10/10 01:29:52;;;;;;;3.05;1.38;;;8.10;99.90;;;;;;5022421;28;20082;-63
2022/10/10 01:32:45;;;;;;;3.72;2.08;;;8.20;99.90;;;;;;5027769;28;20548;-63
2022/10/10 01:35:28;;;;;;;3.50;1.45;;;8.20;99.90;;;;;;5029696;28;20021;-62
2022/10/10 01:38:18;;;;;;;4.32;1.60;;;8.20;99.90;;;;;;5012110;28;20073;-63
2022/10/10 01:40:56;;;;;;;1.85;1.23;;;8.20;99.90;;;;;;5017916;28;20420;-62
2022/10/10 01:43:25;;;;;;;5.55;1.40;;;8.20;99.90;;;;;;5028797;28;20117;-63
2022/10/10 01:45:52;;;;;;;4.50;1.65;;;8.20;99.90;;;;;;5024846;28;20026;-62
2022/10/10 01:48:25;;;;;;;3.50;1.70;;;8.30;99.90;;;;;;5022366;28;20485;-63
2022/10/10 01:51:14;;;;;;;3.47;1.60;;;8.20;99.90;;;;;;5023052;28;20055;-63
2022/10/10 01:53:48;;;;;;;2.58;1.50;;;8.20;99.90;;;;;;4997754;28;20358;-62
2022/10/10 01:56:30;;;;;;;2.92;1.40;;;8.20;99.90;;;;;;5028311;28;20404;-62
2022/10/10 01:59:14;;;;;;;4.70;1.33;;;8.30;99.90;;;;;;5025405;28;20484;-63
2022/10/10 02:01:51;;;;;;;4.07;2.08;;;8.30;99.90;;;;;;5009764;28;20049;-63
2022/10/10 02:04:35;;;;;;;3.72;1.80;;;8.30;99.90;;;;;;5022166;28;20116;-63
2022/10/10 02:07:04;;;;;;;;;;;8.30;99.90;;;;;;5006325;28;20124;-63
2022/10/10 02:09:38;;;;;;;4.28;1.70;;;8.30;99.90;;;;;;5019873;28;19913;-63
2022/10/10 02:12:06;;;;;;;4.47;1.63;;;8.30;99.90;;;;;;5027875;28;20099;-63
2022/10/10 02:14:42;;;;;;;6.25;1.52;;;8.30;99.90;;;;;;5020955;28;20021;-63
2022/10/10 02:17:11;;;;;;;9.82;2.75;;;8.30;99.90;;;;;;5024667;28;20019;-63
2022/10/10 02:19:43;;;;;;;3.08;1.33;;;8.30;99.90;;;;;;5019710;28;20017;-63
2022/10/10 02:22:09;;;;;;;2.50;1.33;;;8.30;99.90;;;;;;5028654;28;20025;-63
2022/10/10 02:24:35;;;;;;;2.80;1.45;;;8.40;99.90;;;;;;5018699;28;20029;-63
2022/10/10 02:27:36;;;;;;;2.33;1.33;;;8.30;99.90;;;;;;5019876;28;20030;-63
2022/10/10 02:30:04;;;;;;;3.83;1.50;;;8.30;99.90;;;;;;5022589;28;20053;-63
2022/10/10 02:32:59;;;;;;;3.58;1.60;;;8.20;99.90;;;;;;5025108;28;20037;-63
2022/10/10 02:35:31;;;;;;;3.47;1.30;;;8.20;99.90;;;;;;5022988;28;20049;-63
2022/10/10 02:37:58;;;;;;;6.25;2.10;;;8.10;99.90;;;;;;5020081;28;20440;-63
2022/10/10 02:40:29;;;;;;;4.47;1.45;;;8.10;99.90;;;;;;5028497;28;20021;-62
2022/10/10 02:42:56;;;;;;;4.28;1.30;;;8.10;99.90;;;;;;5024098;28;20026;-63
2022/10/10 02:45:24;;;;;;;9.27;1.95;;;8.10;99.90;;;;;;5027677;28;20033;-63
2022/10/10 02:47:50;;;;;;;2.47;1.63;;;8.10;99.90;;;;;;5027688;28;20014;-63
2022/10/10 02:50:16;;;;;;;3.05;1.52;;;8.10;99.90;;;;;;5027844;28;20049;-63
2022/10/10 02:52:42;;;;;;;8.02;1.98;;;8.10;99.90;;;;;;5022698;28;20068;-63
2022/10/10 02:55:08;;;;;;;6.82;2.03;;;8.00;99.90;;;;;;5031949;28;20052;-63
2022/10/10 02:57:34;;;;;;;3.25;1.98;;;7.90;99.90;;;;;;5030308;28;20672;-62
2022/10/10 03:00:00;;;;;;;5.00;1.80;;;7.90;99.90;;;;;;5027741;28;20037;-63
2022/10/10 03:02:26;;;;;;;3.10;1.70;;;7.90;99.90;;;;;;5015974;28;20029;-63
2022/10/10 03:04:52;;;;;;;7.28;2.10;;;7.90;99.90;;;;;;5019354;28;20076;-63
2022/10/10 03:07:17;;;;;;;4.25;1.70;;;7.90;99.90;;;;;;5004749;28;20099;-63
2022/10/10 03:09:43;;;;;;;6.15;1.73;;;7.80;99.90;;;;;;5022406;28;20469;-63
2022/10/10 03:12:09;;;;;;;2.65;1.48;;;7.70;99.90;;;;;;5029773;28;20473;-62
2022/10/10 03:14:34;;;;;;;4.03;1.77;;;7.70;99.90;;;;;;5028480;28;20096;-63
2022/10/10 03:17:00;;;;;;;5.28;1.65;;;7.70;99.90;;;;;;5026334;28;20059;-63
2022/10/10 03:19:25;;;;;;;9.30;3.05;;;7.70;99.90;;;;;;5029277;28;20033;-62
2022/10/10 03:21:51;;;;;;;3.10;1.90;;;7.70;99.90;;;;;;5024922;28;20025;-63
2022/10/10 03:24:17;;;;;;;3.95;1.83;;;7.60;99.90;;;;;;5030697;28;20476;-63
2022/10/10 03:26:42;;;;;;;3.17;2.08;;;7.60;99.90;;;;;;5023880;28;20029;-63
2022/10/10 03:29:08;;;;;;;4.05;1.88;;;7.50;99.90;;;;;;5026858;28;20167;-63
2022/10/10 03:31:34;;;;;;;4.75;1.85;;;7.50;99.90;;;;;;5030441;28;20030;-63
2022/10/10 03:33:59;;;;;;;4.55;2.00;;;7.40;99.90;;;;;;5022613;28;20041;-64
2022/10/10 03:36:26;;;;;;;6.45;1.85;;;7.50;99.90;;;;;;5031820;28;20033;-62
2022/10/10 03:38:51;;;;;;;4.57;1.60;;;7.50;99.90;;;;;;5022979;28;20041;-62
2022/10/10 03:41:17;;;;;;;2.75;1.80;;;7.50;99.90;;;;;;5030603;28;20029;-63
2022/10/10 03:43:42;;;;;;;2.90;2.00;;;7.40;99.90;;;;;;5022251;28;20033;-62
2022/10/10 03:46:08;;;;;;;7.20;2.30;;;7.40;99.90;;;;;;5031692;28;20025;-63
2022/10/10 03:48:34;;;;;;;5.35;2.53;;;7.30;99.90;;;;;;5025743;28;21236;-62
2022/10/10 03:50:59;;;;;;;8.65;3.85;;;7.30;99.90;;;;;;5031334;28;20092;-63
2022/10/10 03:53:25;;;;;;;6.30;2.05;;;7.20;99.90;;;;;;5028714;28;20129;-62
2022/10/10 03:55:52;;;;;;;4.90;1.95;;;7.20;99.90;;;;;;5030402;28;20079;-62
2022/10/10 03:58:18;;;;;;;3.42;2.03;;;7.30;99.90;;;;;;5027057;28;20424;-63
2022/10/10 04:00:43;;;;;;;3.70;2.15;;;7.30;99.90;;;;;;5025212;28;20040;-62
2022/10/10 04:03:09;;;;;;;6.43;2.60;;;7.30;99.90;;;;;;5026089;28;20092;-63
2022/10/10 04:05:36;;;;;;;10.55;2.65;;;7.20;99.90;;;;;;5008970;28;20432;-63
2022/10/10 04:08:03;;;;;;;3.88;2.40;;;7.20;99.90;;;;;;5024709;28;20052;-62
2022/10/10 04:10:28;;;;;;;7.97;1.83;;;7.30;99.90;;;;;;5030905;28;20392;-62
2022/10/10 04:12:54;;;;;;;6.00;2.92;;;7.30;99.90;;;;;;5029312;28;20029;-62
2022/10/10 04:15:20;;;;;;;4.40;2.95;;;7.40;99.90;;;;;;5029710;28;20121;-63
2022/10/10 04:17:45;;;;;;;6.45;2.00;;;7.30;99.90;;;;;;5030492;28;20083;-62
2022/10/10 04:20:11;;;;;;;8.20;2.75;;;7.40;99.90;;;;;;5026288;28;20037;-62
2022/10/10 04:22:36;;;;;;;4.60;2.28;;;7.40;99.90;;;;;;5026721;28;20126;-62
2022/10/10 04:25:02;;;;;;;5.88;2.40;;;7.40;99.90;;;;;;5020339;28;20025;-63
2022/10/10 04:27:28;;;;;;;4.25;2.38;;;7.40;99.90;;;;;;5029048;28;20137;-62
2022/10/10 04:29:53;;;;;;;3.67;2.30;;;7.30;99.90;;;;;;5025754;28;20026;-63
2022/10/10 04:32:19;;;;;;;5.32;2.25;;;7.30;99.90;;;;;;5024356;28;20504;-63
2022/10/10 04:34:44;;;;;;;4.35;2.67;;;7.20;99.90;;;;;;5023344;28;20140;-62
2022/10/10 04:37:10;;;;;;;4.03;2.33;;;7.10;99.90;;;;;;5025951;28;20096;-63
2022/10/10 04:39:36;;;;;;;9.98;3.67;;;7.10;99.90;;;;;;5026933;28;20436;-62
2022/10/10 04:42:01;;;;;;;10.07;4.20;;;7.00;99.90;;;;;;5022420;28;20026;-63
2022/10/10 04:44:27;;;;;;;7.82;4.38;;;6.90;99.90;;;;;;5023493;28;20444;-63
2022/10/10 04:46:52;;;;;;;7.25;3.40;;;7.00;99.90;;;;;;5022747;28;20029;-63
2022/10/10 04:49:18;;;;;;;8.55;4.15;;;7.00;99.90;;;;;;5027187;28;20050;-63
2022/10/10 04:51:43;;;;;;;8.40;3.63;;;7.00;99.90;;;;;;5017309;28;20084;-62
2022/10/10 04:54:09;;;;;;;10.80;3.70;;;7.10;99.90;;;;;;5017817;28;20083;-63
2022/10/10 04:56:35;;;;;;;4.85;2.60;;;7.00;99.90;;;;;;5018771;28;20077;-63
2022/10/10 04:59:00;;;;;;;6.63;4.10;;;7.10;99.90;;;;;;5027207;28;20037;-63
2022/10/10 05:01:26;;;;;;;5.47;2.67;;;7.10;99.90;;;;;;5024633;28;20111;-63
2022/10/10 05:03:52;;;;;;;8.98;4.57;;;7.20;99.90;;;;;;5018003;28;20072;-63
2022/10/10 05:06:18;;;;;;;6.15;2.88;;;7.20;99.90;;;;;;5005858;28;20050;-63
2022/10/10 05:08:43;;;;;;;3.75;2.60;;;7.20;99.90;;;;;;5028505;28;20101;-63
2022/10/10 05:11:09;;;;;;;7.70;3.80;;;7.20;99.90;;;;;;5023630;28;20026;-62
2022/10/10 05:13:35;;;;;;;8.80;3.55;;;7.20;99.90;;;;;;5016301;28;20061;-63
2022/10/10 05:16:00;;;;;;;8.23;3.75;;;7.10;99.90;;;;;;5025147;28;20044;-62
2022/10/10 05:18:26;;;;;;;6.05;3.65;;;7.10;99.90;;;;;;5023232;28;20032;-63
2022/10/10 05:20:51;;;;;;;6.80;3.72;;;7.00;99.90;;;;;;5023521;28;20030;-63
2022/10/10 05:23:17;;;;;;;5.50;3.40;;;7.00;99.90;;;;;;5025466;28;20045;-62
2022/10/10 05:25:44;;;;;;;6.38;3.33;;;6.90;99.90;;;;;;5010939;28;20030;-63
2022/10/10 05:28:11;;;;;;;7.80;3.13;;;6.90;99.90;;;;;;5024090;28;20044;-63
2022/10/10 05:30:37;;;;;;;5.35;2.80;;;7.00;99.90;;;;;;5021773;28;20025;-63
2022/10/10 05:33:02;;;;;;;9.13;2.90;;;7.00;99.90;;;;;;5037914;28;20638;-63
2022/10/10 05:35:28;;;;;;;4.53;2.90;;;7.10;99.90;;;;;;5019279;28;20038;-62
2022/10/10 05:37:54;;;;;;;4.30;2.65;;;7.10;99.90;;;;;;5025658;28;20455;-63
2022/10/10 05:40:19;;;;;;;6.15;2.38;;;7.10;99.90;;;;;;5028334;28;20109;-63
2022/10/10 05:42:45;;;;;;;9.32;2.92;;;7.10;99.90;;;;;;5023636;28;20440;-62
2022/10/10 05:45:10;;;;;;;4.35;2.55;;;7.20;99.90;;;;;;5026261;28;20097;-63
2022/10/10 05:47:36;;;;;;;7.30;2.67;;;7.20;99.90;;;;;;5039391;28;20026;-63
2022/10/10 05:50:02;;;;;;;5.53;2.63;;;7.20;99.90;;;;;;5028691;28;20395;-62
2022/10/10 05:52:28;;;;;;;4.65;2.20;;;7.20;99.90;;;;;;5017057;28;20053;-63
2022/10/10 05:54:53;;;;;;;5.82;2.72;;;7.10;99.90;;;;;;5028938;28;20412;-63
2022/10/10 05:57:19;;;;;;;5.80;3.08;;;7.10;99.90;;;;;;5022833;28;20021;-62
2022/10/10 05:59:45;;;;;;;4.45;2.70;;;7.10;99.90;;;;;;5024874;28;20520;-63
2022/10/10 06:02:12;;;;;;;7.20;2.60;;;7.10;99.90;;;;;;5053932;22;20017;-66
2022/10/10 06:04:38;;;;;;;8.45;3.10;;;7.20;99.90;;;;;;5038111;28;20038;-67
2022/10/10 06:07:03;;;;;;;3.80;2.53;;;7.20;99.90;;;;;;5018512;28;20093;-66
2022/10/10 06:09:29;;;;;;;4.50;2.60;;;7.20;99.90;;;;;;5041571;28;20021;-67
2022/10/10 06:11:55;;;;;;;7.60;2.95;;;7.20;99.90;;;;;;5033316;28;20022;-67
2022/10/10 06:14:20;;;;;;;9.07;2.65;;;7.30;99.90;;;;;;5043583;28;20021;-67
2022/10/10 06:16:46;;;;;;;7.47;2.30;;;7.40;99.90;;;;;;5037108;28;20041;-66
2022/10/10 06:19:11;;;;;;;4.82;2.60;;;7.40;99.90;;;;;;5041548;28;20029;-67
2022/10/10 06:21:37;;;;;;;6.47;2.45;;;7.40;99.90;;;;;;5043116;28;20024;-66
2022/10/10 06:24:03;;;;;;;7.57;2.78;;;7.50;99.90;;;;;;5042867;28;20468;-66
2022/10/10 06:26:29;;;;;;;4.82;2.50;;;7.60;99.90;;;;;;5049009;28;20036;-68
2022/10/10 06:28:54;;;;;;;7.60;2.88;;;7.70;99.90;;;;;;5047167;28;20055;-68
2022/10/10 06:31:20;;;;;;;4.50;2.78;;;7.70;99.90;;;;;;5044932;28;20019;-67
2022/10/10 06:33:46;;;;;;;5.10;3.08;;;7.70;99.90;;;;;;5043695;28;20416;-66
2022/10/10 06:36:15;;;;;;;5.75;3.08;;;7.80;99.90;;;;;;5042704;28;20045;-67
2022/10/10 06:38:43;;;;;;;3.78;2.40;;;7.80;99.90;;;;;;5041762;28;20023;-69
2022/10/10 06:41:09;;;;;;;4.95;2.50;;;7.90;99.90;;;;;;5047909;28;20033;-68
2022/10/10 06:43:35;;;;;;;5.40;2.58;;;8.00;99.90;;;;;;5051185;28;20056;-67
2022/10/10 06:46:01;;;;;;;3.53;2.58;;;8.10;99.90;;;;;;5046852;28;20032;-68
2022/10/10 06:48:29;;;;;;;4.28;2.08;;;8.20;99.90;;;;;;5046529;28;20021;-69
2022/10/10 06:50:56;;;;;;;5.53;2.72;;;8.30;99.90;;;;;;5041202;28;20679;-65
2022/10/10 06:53:22;;;;;;;5.22;2.28;;;8.50;99.90;;;;;;5046882;28;20033;-65
2022/10/10 06:55:47;;;;;;;3.90;2.17;;;8.60;99.90;;;;;;5050863;28;20108;-68
2022/10/10 06:58:13;;;;;;;7.40;2.63;;;8.70;99.90;;;;;;5049617;28;20032;-67
2022/10/10 07:00:39;;;;;;;5.50;2.38;;;8.80;99.90;;;;;;5040906;28;20047;-70
2022/10/10 07:03:05;;;;;;;3.50;2.47;;;8.90;99.90;;;;;;5041527;28;20068;-70
2022/10/10 07:05:31;;;;;;;3.97;2.05;;;9.00;99.90;;;;;;5033981;28;20047;-70
2022/10/10 07:07:57;;;;;;;5.35;3.35;;;9.10;99.90;;;;;;5039091;28;20040;-71
2022/10/10 07:10:22;;;;;;;7.70;4.10;;;9.30;99.90;;;;;;5041420;28;20026;-70
2022/10/10 07:12:48;;;;;;;5.32;2.35;;;9.40;99.90;;;;;;5044273;28;20048;-69
2022/10/10 07:15:14;;;;;;;6.68;2.53;;;9.50;99.90;;;;;;5040428;28;20033;-68
2022/10/10 07:17:39;;;;;;;16.30;2.78;;;9.60;99.90;;;;;;5043963;28;20421;-69
2022/10/10 07:20:05;;;;;;;6.22;1.95;;;9.70;99.90;;;;;;5036693;28;20401;-69
2022/10/10 07:22:31;;;;;;;4.13;2.25;;;9.80;99.90;;;;;;5046481;28;20447;-68
2022/10/10 07:24:57;;;;;;;5.55;2.25;;;9.90;99.90;;;;;;5049771;28;20029;-69
2022/10/10 07:27:22;;;;;;;6.57;2.17;;;10.00;99.90;;;;;;5043843;28;20104;-68
2022/10/10 07:29:48;;;;;;;3.13;2.17;;;10.10;99.90;;;;;;5047536;28;20079;-71
2022/10/10 07:32:14;;;;;;;9.63;2.78;;;10.20;99.90;;;;;;5051345;28;20029;-68
2022/10/10 07:34:39;;;;;;;4.75;2.17;;;10.40;99.90;;;;;;5050625;28;20029;-69
2022/10/10 07:37:05;;;;;;;4.00;2.38;;;10.50;99.90;;;;;;5043478;28;20460;-69
2022/10/10 07:39:30;;;;;;;4.82;1.92;;;10.60;99.90;;;;;;5038076;28;20032;-70
2022/10/10 07:41:56;;;;;;;4.47;2.20;;;10.70;99.90;;;;;;5051714;28;20577;-68
2022/10/10 07:44:24;;;;;;;5.72;2.90;;;10.80;99.90;;;;;;5040669;28;20025;-67
2022/10/10 07:46:50;;;;;;;6.85;2.58;;;10.90;99.90;;;;;;5049428;28;20454;-68
2022/10/10 07:49:16;;;;;;;6.28;2.85;;;11.00;99.90;;;;;;5037530;28;20056;-70
2022/10/10 07:51:41;;;;;;;6.28;2.47;;;11.10;99.90;;;;;;5049734;28;20107;-69
2022/10/10 07:54:08;;;;;;;9.00;2.80;;;11.20;99.90;;;;;;5048443;28;20029;-69
2022/10/10 07:56:34;;;;;;;4.30;2.88;;;11.30;99.90;;;;;;5049890;28;20021;-69
2022/10/10 07:58:59;;;;;;;7.72;2.47;;;11.50;99.90;;;;;;5044160;28;20021;-70
2022/10/10 08:01:25;;;;;;;5.00;2.80;;;11.60;99.90;;;;;;5048767;28;20071;-69
2022/10/10 08:03:51;;;;;;;3.92;2.05;;;11.60;99.90;;;;;;5039665;28;20025;-68
2022/10/10 08:06:17;;;;;;;6.82;2.38;;;11.80;99.90;;;;;;5033520;28;20037;-69
2022/10/10 08:08:46;;;;;;;4.63;2.47;;;11.90;99.90;;;;;;5045689;28;20369;-70
2022/10/10 08:11:11;;;;;;;6.88;2.28;;;12.10;99.90;;;;;;5041541;28;20021;-69
2022/10/10 08:13:38;;;;;;;3.17;2.47;;;12.30;99.90;;;;;;5042171;28;20040;-68
2022/10/10 08:16:04;;;;;;;8.45;2.70;;;12.50;99.90;;;;;;5046198;28;20115;-70
2022/10/10 08:18:30;;;;;;;3.78;2.28;;;12.60;99.90;;;;;;5040165;28;20139;-68
2022/10/10 08:21:05;;;;;;;5.82;2.60;;;12.70;99.90;;;;;;5043337;28;20484;-69
2022/10/10 08:23:31;;;;;;;5.90;2.33;;;12.80;99.90;;;;;;5044727;28;20107;-71
2022/10/10 08:25:58;;;;;;;4.80;2.67;;;13.00;99.90;;;;;;5035735;28;20029;-70
2022/10/10 08:28:24;;;;;;;6.43;2.38;;;13.00;99.90;;;;;;5040598;28;20099;-69
2022/10/10 08:30:50;;;;;;;3.80;2.47;;;13.10;99.90;;;;;;5032134;28;20064;-68
2022/10/10 08:33:15;;;;;;;11.05;2.40;;;13.20;99.90;;;;;;5047006;28;20032;-69
2022/10/10 08:35:41;;;;;;;4.78;3.00;;;13.30;99.90;;;;;;5041953;28;20476;-69
2022/10/10 08:38:07;;;;;;;4.43;2.50;;;13.50;99.90;;;;;;5042525;28;20023;-68
2022/10/10 08:40:41;;;;;;;3.63;2.38;;;13.60;99.90;;;;;;5045056;28;20040;-70
2022/10/10 08:43:08;;;;;;;6.07;2.80;;;13.70;99.90;;;;;;5039425;28;20111;-69
2022/10/10 08:45:37;;;;;;;5.60;3.15;;;13.90;99.90;;;;;;5037495;28;21028;-69
2022/10/10 08:48:11;;;;;;;7.47;2.30;;;14.10;99.90;;;;;;5042615;28;20141;-69
2022/10/10 08:50:45;;;;;;;5.22;2.10;;;14.20;99.90;;;;;;5036737;28;20491;-69
2022/10/10 08:53:13;;;;;;;;;;;14.30;99.90;;;;;;5040624;28;20037;-69
2022/10/10 08:55:42;;;;;;;5.78;2.30;;;14.50;99.90;;;;;;5043069;28;19909;-68
2022/10/10 08:58:23;;;;;;;6.78;2.70;;;14.60;99.90;;;;;;5040602;28;20045;-68
2022/10/10 09:01:13;;;;;;;8.88;2.65;;;14.70;99.90;;;;;;5036810;28;20029;-69
2022/10/10 09:03:53;;;;;;;4.00;2.22;;;14.80;99.90;;;;;;5041044;28;20078;-69
2022/10/10 09:06:31;;;;;;;5.47;2.30;;;14.90;99.90;;;;;;5054360;28;20101;-67
2022/10/10 09:09:07;;;;;;;5.15;3.05;;;15.50;99.90;;;;;;5046389;28;20032;-70
2022/10/10 09:11:35;;;;;;;4.55;2.42;;;15.90;99.90;;;;;;5045419;28;20032;-66
2022/10/10 09:14:18;;;;;;;5.30;2.17;;;16.10;99.90;;;;;;5040515;28;20115;-67
2022/10/10 09:17:07;;;;;;;3.92;2.13;;;16.50;99.90;;;;;;5040323;28;20043;-70
2022/10/10 09:19:52;;;;;;;3.08;1.83;;;17.00;99.90;;;;;;5034566;28;20025;-67
2022/10/10 09:22:24;;;;;;;8.88;2.13;;;17.50;99.90;;;;;;5041908;28;20029;-68
2022/10/10 09:25:05;;;;;;;7.32;2.60;;;17.70;99.90;;;;;;5037675;28;20014;-68
2022/10/10 09:27:36;;;;;;;4.40;2.13;;;17.70;99.90;;;;;;5047173;28;20017;-67
2022/10/10 09:30:16;;;;;;;4.70;1.77;;;18.30;99.90;;;;;;5038575;28;20151;-68
2022/10/10 09:32:50;;;;;;;7.10;2.00;;;18.50;99.90;;;;;;5039312;28;20086;-67
2022/10/10 09:35:26;;;;;;;3.28;1.73;;;18.50;98.70;;;;;;5044069;28;20025;-67
2022/10/10 09:38:09;;;;;;;7.75;2.17;;;19.00;98.90;;;;;;5042307;28;20055;-68
2022/10/10 09:40:37;;;;;;;;;;;19.40;97.20;;;;;;5042267;28;20049;-69
2022/10/10 09:43:15;;;;;;;5.15;1.90;;;19.70;96.50;;;;;;5042679;28;19920;-67
2022/10/10 09:45:52;;;;;;;4.28;2.10;;;19.70;97.10;;;;;;5042635;28;20024;-67
2022/10/10 09:48:21;;;;;;;7.57;2.08;;;19.30;96.50;;;;;;5039752;28;20021;-68
2022/10/10 09:50:46;;;;;;;3.55;1.60;;;19.00;97.80;;;;;;5041442;28;20079;-67
2022/10/10 09:53:15;;;;;;;3.88;1.90;;;18.90;98.00;;;;;;5038658;28;20049;-67
2022/10/10 09:55:43;;;;;;;6.30;2.67;;;18.80;98.20;;;;;;5033139;28;20026;-68
2022/10/10 09:58:22;;;;;;;6.85;2.35;;;18.50;97.90;;;;;;5037096;28;20121;-66
2022/10/10 10:00:48;;;;;;;3.90;1.70;;;18.10;98.80;;;;;;5045356;28;20116;-68
2022/10/10 10:03:16;;;;;;;10.63;3.15;;;18.10;99.20;;;;;;5043742;28;20112;-68
2022/10/10 10:05:58;;;;;;;10.23;2.47;;;17.90;99.90;;;;;;5049065;28;20028;-69
2022/10/10 10:08:30;;;;;;;7.97;2.42;;;17.70;99.70;;;;;;5039229;28;20552;-71
2022/10/10 10:10:57;;;;;;;6.85;2.28;;;17.90;99.90;;;;;;5041117;28;20032;-69
2022/10/10 10:13:34;;;;;;;5.32;2.20;;;18.00;99.90;;;;;;5051598;28;20029;-69
2022/10/10 10:16:05;;;;;;;9.15;2.72;;;18.00;99.90;;;;;;5042799;28;20029;-68
2022/10/10 10:18:39;;;;;;;8.80;2.67;;;17.90;99.80;;;;;;5046875;28;20036;-69
2022/10/10 10:21:14;;;;;;;9.38;2.70;;;17.80;99.90;;;;;;5037698;28;20026;-68
2022/10/10 10:23:42;;;;;;;4.57;2.25;;;17.80;99.90;;;;;;5039384;28;20021;-69
2022/10/10 10:26:21;;;;;;;7.30;2.42;;;18.00;99.90;;;;;;5047771;28;20021;-69
2022/10/10 10:28:48;;;;;;;6.82;2.22;;;18.10;99.40;;;;;;5045810;28;20017;-69
2022/10/10 10:31:29;;;;;;;9.05;2.13;;;18.00;99.60;;;;;;5045991;28;20037;-69
2022/10/10 10:34:28;;;;;;;3.42;2.17;;;18.20;99.90;;;;;;5046467;28;20116;-68
2022/10/10 10:37:18;;;;;;;4.55;2.13;;;18.40;99.40;;;;;;5042602;28;20508;-67
2022/10/10 10:40:08;;;;;;;5.57;2.58;;;18.40;98.80;;;;;;5041582;28;20053;-67
2022/10/10 10:42:46;;;;;;;6.00;2.28;;;18.30;99.40;;;;;;5042398;28;20116;-70
2022/10/10 10:45:15;;;;;;;4.70;2.30;;;18.20;98.50;;;;;;5043761;28;20104;-69
2022/10/10 10:48:08;;;;;;;13.57;2.95;;;18.20;99.00;;;;;;5041666;28;20029;-69
2022/10/10 10:50:49;;;;;;;6.18;2.40;;;18.20;99.30;;;;;;5034408;28;20018;-69
2022/10/10 10:53:39;;;;;;;4.57;2.03;;;18.30;99.70;;;;;;5041383;28;20119;-68
2022/10/10 10:56:10;;;;;;;4.25;2.15;;;18.40;98.90;;;;;;5049534;28;20021;-71
2022/10/10 10:58:42;;;;;;;5.93;2.38;;;18.40;99.50;;;;;;5041589;28;20391;-68
2022/10/10 11:01:33;;;;;;;7.88;2.22;;;18.40;98.90;;;;;;5045073;28;20111;-70
2022/10/10 11:04:31;;;;;;;12.75;2.58;;;18.50;98.90;;;;;;5042487;28;20036;-70
2022/10/10 11:07:02;;;;;;;3.63;2.42;;;18.40;98.50;;;;;;5031879;28;20052;-69
2022/10/10 11:09:33;;;;;;;8.57;2.28;;;18.50;99.20;;;;;;5038503;28;20025;-70
2022/10/10 11:12:17;;;;;;;4.07;2.50;;;18.60;98.80;;;;;;5032334;28;20025;-67
2022/10/10 11:15:13;;;;;;;3.13;1.90;;;18.70;98.00;;;;;;5048364;28;20040;-70
2022/10/10 11:17:51;;;;;;;5.75;2.00;;;18.60;98.30;;;;;;5046692;28;20387;-68
2022/10/10 11:20:29;;;;;;;11.00;2.60;;;18.70;97.10;;;;;;5039984;28;20043;-69
2022/10/10 11:23:11;;;;;;;4.85;1.85;;;18.80;97.70;;;;;;5039563;28;20549;-68
2022/10/10 11:25:48;;;;;;;5.32;2.10;;;19.00;96.70;;;;;;5043320;28;20032;-69
2022/10/10 11:28:34;;;;;;;3.47;1.65;;;19.20;96.30;;;;;;5043442;28;20021;-70
2022/10/10 11:31:23;;;;;;;8.50;2.35;;;19.50;97.10;;;;;;5037177;28;20032;-69
2022/10/10 11:33:53;;;;;;;7.50;2.67;;;19.50;95.50;;;;;;5058466;28;20029;-71
2022/10/10 11:36:21;;;;;;;6.47;1.85;;;19.00;95.20;;;;;;5045628;28;20380;-71
2022/10/10 11:38:55;;;;;;;3.63;1.52;;;18.80;95.90;;;;;;5043066;28;20029;-70
2022/10/10 11:41:22;;;;;;;4.90;2.05;;;18.80;96.40;;;;;;5037296;28;20021;-69
2022/10/10 11:44:11;;;;;;;4.57;1.92;;;19.00;95.80;;;;;;5042927;28;20135;-70
2022/10/10 11:46:52;;;;;;;4.50;1.80;;;18.90;97.00;;;;;;5047241;28;20231;-70
2022/10/10 11:49:23;;;;;;;6.10;1.90;;;19.00;96.00;;;;;;5062234;28;20025;-70
2022/10/10 11:52:10;;;;;;;7.93;1.85;;;19.10;96.60;;;;;;5037470;28;20022;-69
2022/10/10 11:54:52;;;;;;;4.45;2.40;;;19.10;96.30;;;;;;5043723;28;20772;-70
2022/10/10 11:57:45;;;;;;;7.20;1.92;;;19.30;96.10;;;;;;5046301;28;20108;-70
2022/10/10 12:00:16;;;;;;;7.80;1.40;;;19.50;95.80;;;;;;5039407;28;20036;-69
2022/10/10 12:02:43;;;;;;;8.32;1.55;;;19.70;94.60;;;;;;5035661;28;20041;-69
2022/10/10 12:05:22;;;;;;;8.90;1.75;;;19.70;94.80;;;;;;5042920;28;20492;-70
2022/10/10 12:08:00;;;;;;;5.43;2.30;;;19.90;94.30;;;;;;5031875;28;20048;-69
2022/10/10 12:10:36;;;;;;;6.95;2.22;;;20.10;94.30;;;;;;5045584;28;20111;-68
2022/10/10 12:13:18;;;;;;;6.65;1.70;;;20.10;93.90;;;;;;5042053;28;20113;-66
2022/10/10 12:15:48;;;;;;;4.88;1.83;;;20.10;94.30;;;;;;5043294;28;20074;-68
2022/10/10 12:18:40;;;;;;;4.13;1.52;;;20.00;94.40;;;;;;5071497;22;20172;-64
2022/10/10 12:21:14;;;;;;;5.57;1.70;;;19.80;95.70;;;;;;5022710;28;20105;-64
2022/10/10 12:23:59;;;;;;;9.55;1.75;;;19.60;94.70;;;;;;5015126;28;20026;-65
2022/10/10 12:26:54;;;;;;;5.85;1.50;;;19.60;94.60;;;;;;5017344;28;20037;-64
2022/10/10 12:29:48;;;;;;;2.20;1.20;;;19.70;95.00;;;;;;4996345;28;20517;-64
2022/10/10 12:32:13;;;;;;;;;;;19.80;94.90;;;;;;5011178;28;20373;-64
2022/10/10 12:34:54;;;;;;;4.85;1.80;;;19.90;94.70;;;;;;5009515;28;19921;-64
2022/10/10 12:37:25;;;;;;;7.50;1.52;;;20.00;94.60;;;;;;5020112;28;20029;-63
2022/10/10 12:40:15;;;;;;;12.52;2.83;;;20.10;93.60;;;;;;4999203;28;20030;-64
2022/10/10 12:42:47;;;;;;;3.10;1.60;;;19.90;94.00;;;;;;5007198;28;20103;-64
2022/10/10 12:45:27;;;;;;;5.10;2.17;;;19.80;95.20;;;;;;5002384;28;20044;-63
2022/10/10 12:47:53;;;;;;;10.40;2.03;;;20.00;94.50;;;;;;5005082;28;20029;-64
2022/10/10 12:50:27;;;;;;;3.05;1.80;;;19.80;94.20;;;;;;5008243;28;20485;-64
2022/10/10 12:53:02;;;;;;;4.43;1.70;;;20.00;94.30;;;;;;5001748;28;20029;-64
2022/10/10 12:55:59;;;;;;;5.57;1.88;;;20.10;93.70;;;;;;5001305;28;20030;-63
2022/10/10 12:58:38;;;;;;;4.15;1.40;;;20.10;93.60;;;;;;5003171;28;20501;-64
2022/10/10 13:01:28;;;;;;;12.40;2.05;;;20.20;93.80;;;;;;5006384;28;20026;-64
2022/10/10 13:03:54;;;;;;;7.55;1.67;;;20.10;93.70;;;;;;4999456;28;20576;-65
2022/10/10 13:06:34;;;;;;;5.78;1.77;;;20.10;93.90;;;;;;5009873;28;20030;-64
2022/10/10 13:09:02;;;;;;;3.42;1.52;;;20.10;93.70;;;;;;4983500;28;20109;-64
2022/10/10 13:11:28;;;;;;;3.00;1.70;;;20.10;93.60;;;;;;5008038;28;20049;-64
2022/10/10 13:13:55;;;;;;;5.10;1.95;;;19.80;93.00;;;;;;5006317;28;20116;-64